sensor_id;sensor_type;location;lat;lon;timestamp;P1;durP1;ratioP1;P2;durP2;ratioP2
7027;SDS011;3555;53.248;10.336;2023-01-10T00:02:10;25.43;;;11.77;;
7027;SDS011;3555;53.248;10.336;2023-01-10T00:04:37;16.37;;;10.30;;
7027;SDS011;3555;53.248;10.336;2023-01-10T00:07:04;20.90;;;11.03;;
7027;SDS011;3555;53.248;10.336;2023-01-10T00:09:31;20.80;;;11.13;;
7027;SDS011;3555;53.248;10.336;2023-01-10T00:11:58;18.27;;;10.17;;
7027;SDS011;3555;53.248;10.336;2023-01-10T00:14:44;19.97;;;11.10;;
7027;SDS011;3555;53.248;10.336;2023-01-10T00:17:11;18.47;;;10.07;;
7027;SDS011;3555;53.248;10.336;2023-01-10T00:19:37;17.90;;;10.40;;
7027;SDS011;3555;53.248;10.336;2023-01-10T00:22:04;19.63;;;10.13;;
7027;SDS011;3555;53.248;10.336;2023-01-10T00:24:46;22.13;;;10.53;;
7027;SDS011;3555;53.248;10.336;2023-01-10T00:27:13;20.47;;;9.90;;
7027;SDS011;3555;53.248;10.336;2023-01-10T00:29:48;19.73;;;10.40;;
7027;SDS011;3555;53.248;10.336;2023-01-10T00:32:17;25.40;;;10.63;;
7027;SDS011;3555;53.248;10.336;2023-01-10T00:34:44;17.37;;;9.70;;
7027;SDS011;3555;53.248;10.336;2023-01-10T00:37:11;19.40;;;9.93;;
7027;SDS011;3555;53.248;10.336;2023-01-10T00:39:37;24.60;;;9.73;;
7027;SDS011;3555;53.248;10.336;2023-01-10T00:42:05;22.13;;;9.53;;
7027;SDS011;3555;53.248;10.336;2023-01-10T00:44:50;16.23;;;9.20;;
7027;SDS011;3555;53.248;10.336;2023-01-10T00:47:17;18.93;;;9.40;;
7027;SDS011;3555;53.248;10.336;2023-01-10T00:49:44;17.77;;;8.87;;
7027;SDS011;3555;53.248;10.336;2023-01-10T00:52:11;22.93;;;8.17;;
7027;SDS011;3555;53.248;10.336;2023-01-10T00:54:38;15.27;;;8.87;;
7027;SDS011;3555;53.248;10.336;2023-01-10T00:57:05;18.83;;;8.63;;
7027;SDS011;3555;53.248;10.336;2023-01-10T00:59:31;18.07;;;9.00;;
7027;SDS011;3555;53.248;10.336;2023-01-10T01:02:00;20.87;;;9.03;;
7027;SDS011;3555;53.248;10.336;2023-01-10T01:04:26;20.00;;;8.60;;
7027;SDS011;3555;53.248;10.336;2023-01-10T01:06:58;18.90;;;9.70;;
7027;SDS011;3555;53.248;10.336;2023-01-10T01:09:25;17.37;;;7.90;;
7027;SDS011;3555;53.248;10.336;2023-01-10T01:11:52;21.37;;;8.53;;
7027;SDS011;3555;53.248;10.336;2023-01-10T01:14:20;20.67;;;8.23;;
7027;SDS011;3555;53.248;10.336;2023-01-10T01:16:47;17.97;;;8.87;;
7027;SDS011;3555;53.248;10.336;2023-01-10T01:19:15;16.77;;;8.40;;
7027;SDS011;3555;53.248;10.336;2023-01-10T01:21:42;16.80;;;7.97;;
7027;SDS011;3555;53.248;10.336;2023-01-10T01:24:09;17.60;;;9.30;;
7027;SDS011;3555;53.248;10.336;2023-01-10T01:26:36;18.83;;;8.93;;
7027;SDS011;3555;53.248;10.336;2023-01-10T01:29:03;17.13;;;8.00;;
7027;SDS011;3555;53.248;10.336;2023-01-10T01:31:30;15.50;;;8.27;;
7027;SDS011;3555;53.248;10.336;2023-01-10T01:33:57;18.30;;;8.20;;
7027;SDS011;3555;53.248;10.336;2023-01-10T01:36:25;17.73;;;8.30;;
7027;SDS011;3555;53.248;10.336;2023-01-10T01:38:52;14.30;;;7.90;;
7027;SDS011;3555;53.248;10.336;2023-01-10T01:41:19;18.27;;;8.50;;
7027;SDS011;3555;53.248;10.336;2023-01-10T01:44:04;20.60;;;8.77;;
7027;SDS011;3555;53.248;10.336;2023-01-10T01:46:32;18.67;;;8.70;;
7027;SDS011;3555;53.248;10.336;2023-01-10T01:49:02;24.33;;;8.30;;
7027;SDS011;3555;53.248;10.336;2023-01-10T01:51:32;15.50;;;9.67;;
7027;SDS011;3555;53.248;10.336;2023-01-10T01:54:01;17.73;;;7.77;;
7027;SDS011;3555;53.248;10.336;2023-01-10T01:56:32;23.47;;;8.80;;
7027;SDS011;3555;53.248;10.336;2023-01-10T01:59:04;21.23;;;8.47;;
7027;SDS011;3555;53.248;10.336;2023-01-10T02:01:34;14.50;;;8.37;;
7027;SDS011;3555;53.248;10.336;2023-01-10T02:04:06;17.90;;;8.27;;
7027;SDS011;3555;53.248;10.336;2023-01-10T02:06:38;15.07;;;8.57;;
7027;SDS011;3555;53.248;10.336;2023-01-10T02:09:07;15.87;;;8.43;;
7027;SDS011;3555;53.248;10.336;2023-01-10T02:11:41;17.70;;;7.80;;
7027;SDS011;3555;53.248;10.336;2023-01-10T02:14:08;17.30;;;8.50;;
7027;SDS011;3555;53.248;10.336;2023-01-10T02:16:37;19.50;;;8.57;;
7027;SDS011;3555;53.248;10.336;2023-01-10T02:19:04;18.83;;;8.60;;
7027;SDS011;3555;53.248;10.336;2023-01-10T02:24:52;17.93;;;8.40;;
7027;SDS011;3555;53.248;10.336;2023-01-10T02:27:47;24.13;;;8.33;;
7027;SDS011;3555;53.248;10.336;2023-01-10T02:30:34;20.30;;;9.17;;
7027;SDS011;3555;53.248;10.336;2023-01-10T02:33:15;22.13;;;9.80;;
7027;SDS011;3555;53.248;10.336;2023-01-10T02:38:55;17.67;;;8.73;;
7027;SDS011;3555;53.248;10.336;2023-01-10T02:41:28;20.47;;;9.57;;
7027;SDS011;3555;53.248;10.336;2023-01-10T02:44:02;20.40;;;9.83;;
7027;SDS011;3555;53.248;10.336;2023-01-10T02:46:32;17.30;;;8.93;;
7027;SDS011;3555;53.248;10.336;2023-01-10T02:49:02;20.47;;;9.90;;
7027;SDS011;3555;53.248;10.336;2023-01-10T02:51:29;18.40;;;9.97;;
7027;SDS011;3555;53.248;10.336;2023-01-10T02:53:58;19.67;;;9.20;;
7027;SDS011;3555;53.248;10.336;2023-01-10T02:56:39;19.27;;;9.80;;
7027;SDS011;3555;53.248;10.336;2023-01-10T03:02:44;24.20;;;11.33;;
7027;SDS011;3555;53.248;10.336;2023-01-10T03:05:36;19.00;;;11.13;;
7027;SDS011;3555;53.248;10.336;2023-01-10T03:08:16;19.90;;;11.07;;
7027;SDS011;3555;53.248;10.336;2023-01-10T03:10:51;16.00;;;10.53;;
7027;SDS011;3555;53.248;10.336;2023-01-10T03:13:24;18.63;;;10.93;;
7027;SDS011;3555;53.248;10.336;2023-01-10T03:15:53;20.13;;;10.60;;
7027;SDS011;3555;53.248;10.336;2023-01-10T03:18:23;17.40;;;9.97;;
7027;SDS011;3555;53.248;10.336;2023-01-10T03:20:58;15.13;;;10.27;;
7027;SDS011;3555;53.248;10.336;2023-01-10T03:23:27;16.57;;;10.20;;
7027;SDS011;3555;53.248;10.336;2023-01-10T03:25:54;15.87;;;9.77;;
7027;SDS011;3555;53.248;10.336;2023-01-10T03:28:23;16.73;;;10.13;;
7027;SDS011;3555;53.248;10.336;2023-01-10T03:30:56;19.90;;;9.30;;
7027;SDS011;3555;53.248;10.336;2023-01-10T03:33:26;16.57;;;9.90;;
7027;SDS011;3555;53.248;10.336;2023-01-10T03:35:58;20.00;;;9.60;;
7027;SDS011;3555;53.248;10.336;2023-01-10T03:38:36;18.73;;;9.33;;
7027;SDS011;3555;53.248;10.336;2023-01-10T03:41:11;15.30;;;8.63;;
7027;SDS011;3555;53.248;10.336;2023-01-10T03:43:42;13.93;;;8.83;;
7027;SDS011;3555;53.248;10.336;2023-01-10T03:46:32;15.20;;;9.57;;
7027;SDS011;3555;53.248;10.336;2023-01-10T03:49:06;19.40;;;9.00;;
7027;SDS011;3555;53.248;10.336;2023-01-10T03:51:37;16.20;;;8.93;;
7027;SDS011;3555;53.248;10.336;2023-01-10T03:54:05;18.30;;;9.03;;
7027;SDS011;3555;53.248;10.336;2023-01-10T03:56:42;18.43;;;9.10;;
7027;SDS011;3555;53.248;10.336;2023-01-10T03:59:10;19.23;;;9.47;;
7027;SDS011;3555;53.248;10.336;2023-01-10T04:01:36;16.73;;;8.43;;
7027;SDS011;3555;53.248;10.336;2023-01-10T04:04:03;15.47;;;9.37;;
7027;SDS011;3555;53.248;10.336;2023-01-10T04:06:30;15.23;;;8.80;;
7027;SDS011;3555;53.248;10.336;2023-01-10T04:08:58;16.47;;;8.87;;
7027;SDS011;3555;53.248;10.336;2023-01-10T04:11:25;17.40;;;9.40;;
7027;SDS011;3555;53.248;10.336;2023-01-10T04:13:52;14.90;;;9.27;;
7027;SDS011;3555;53.248;10.336;2023-01-10T04:16:19;14.27;;;8.77;;
7027;SDS011;3555;53.248;10.336;2023-01-10T04:18:46;15.87;;;8.97;;
7027;SDS011;3555;53.248;10.336;2023-01-10T04:21:13;17.80;;;8.90;;
7027;SDS011;3555;53.248;10.336;2023-01-10T04:23:40;15.47;;;9.17;;
7027;SDS011;3555;53.248;10.336;2023-01-10T04:26:08;19.20;;;9.37;;
7027;SDS011;3555;53.248;10.336;2023-01-10T04:28:35;18.73;;;8.87;;
7027;SDS011;3555;53.248;10.336;2023-01-10T04:31:02;15.17;;;9.70;;
7027;SDS011;3555;53.248;10.336;2023-01-10T04:33:29;14.40;;;8.40;;
7027;SDS011;3555;53.248;10.336;2023-01-10T04:35:56;13.30;;;9.13;;
7027;SDS011;3555;53.248;10.336;2023-01-10T04:38:23;16.13;;;9.40;;
7027;SDS011;3555;53.248;10.336;2023-01-10T04:40:53;16.53;;;8.73;;
7027;SDS011;3555;53.248;10.336;2023-01-10T04:43:22;16.83;;;9.33;;
7027;SDS011;3555;53.248;10.336;2023-01-10T04:45:49;18.27;;;8.57;;
7027;SDS011;3555;53.248;10.336;2023-01-10T04:48:17;16.70;;;7.90;;
7027;SDS011;3555;53.248;10.336;2023-01-10T04:50:47;16.23;;;8.57;;
7027;SDS011;3555;53.248;10.336;2023-01-10T04:53:15;15.03;;;8.47;;
7027;SDS011;3555;53.248;10.336;2023-01-10T04:55:41;13.90;;;8.47;;
7027;SDS011;3555;53.248;10.336;2023-01-10T04:58:08;16.97;;;9.07;;
7027;SDS011;3555;53.248;10.336;2023-01-10T05:00:37;20.00;;;8.57;;
7027;SDS011;3555;53.248;10.336;2023-01-10T05:03:04;12.30;;;8.07;;
7027;SDS011;3555;53.248;10.336;2023-01-10T05:05:31;20.87;;;8.63;;
7027;SDS011;3555;53.248;10.336;2023-01-10T05:07:58;17.80;;;8.10;;
7027;SDS011;3555;53.248;10.336;2023-01-10T05:10:25;18.83;;;7.77;;
7027;SDS011;3555;53.248;10.336;2023-01-10T05:12:51;15.43;;;7.60;;
7027;SDS011;3555;53.248;10.336;2023-01-10T05:15:18;18.67;;;7.77;;
7027;SDS011;3555;53.248;10.336;2023-01-10T05:17:48;18.90;;;7.87;;
7027;SDS011;3555;53.248;10.336;2023-01-10T05:20:18;15.20;;;7.57;;
7027;SDS011;3555;53.248;10.336;2023-01-10T05:22:46;22.63;;;7.23;;
7027;SDS011;3555;53.248;10.336;2023-01-10T05:25:13;14.17;;;7.30;;
7027;SDS011;3555;53.248;10.336;2023-01-10T05:27:40;14.67;;;5.93;;
7027;SDS011;3555;53.248;10.336;2023-01-10T05:30:09;12.80;;;7.37;;
7027;SDS011;3555;53.248;10.336;2023-01-10T05:32:37;11.30;;;6.53;;
7027;SDS011;3555;53.248;10.336;2023-01-10T05:35:05;14.70;;;6.53;;
7027;SDS011;3555;53.248;10.336;2023-01-10T05:37:33;12.33;;;6.47;;
7027;SDS011;3555;53.248;10.336;2023-01-10T05:39:59;15.63;;;6.60;;
7027;SDS011;3555;53.248;10.336;2023-01-10T05:42:26;13.20;;;6.67;;
7027;SDS011;3555;53.248;10.336;2023-01-10T05:44:53;12.47;;;5.97;;
7027;SDS011;3555;53.248;10.336;2023-01-10T05:47:20;12.37;;;5.77;;
7027;SDS011;3555;53.248;10.336;2023-01-10T05:49:47;16.40;;;6.20;;
7027;SDS011;3555;53.248;10.336;2023-01-10T05:52:15;19.50;;;6.27;;
7027;SDS011;3555;53.248;10.336;2023-01-10T05:54:42;21.40;;;6.47;;
7027;SDS011;3555;53.248;10.336;2023-01-10T05:57:09;13.23;;;5.77;;
7027;SDS011;3555;53.248;10.336;2023-01-10T05:59:36;15.53;;;6.20;;
7027;SDS011;3555;53.248;10.336;2023-01-10T06:02:02;12.10;;;6.30;;
7027;SDS011;3555;53.248;10.336;2023-01-10T06:04:29;12.37;;;6.20;;
7027;SDS011;3555;53.248;10.336;2023-01-10T06:06:56;14.73;;;6.67;;
7027;SDS011;3555;53.248;10.336;2023-01-10T06:09:24;14.83;;;6.00;;
7027;SDS011;3555;53.248;10.336;2023-01-10T06:11:51;17.90;;;7.03;;
7027;SDS011;3555;53.248;10.336;2023-01-10T06:14:18;14.83;;;6.27;;
7027;SDS011;3555;53.248;10.336;2023-01-10T06:16:45;15.60;;;5.87;;
7027;SDS011;3555;53.248;10.336;2023-01-10T06:19:12;14.20;;;6.07;;
7027;SDS011;3555;53.248;10.336;2023-01-10T06:21:39;14.13;;;5.83;;
7027;SDS011;3555;53.248;10.336;2023-01-10T06:24:06;16.37;;;6.13;;
7027;SDS011;3555;53.248;10.336;2023-01-10T06:26:35;13.37;;;5.40;;
7027;SDS011;3555;53.248;10.336;2023-01-10T06:29:02;14.43;;;5.10;;
7027;SDS011;3555;53.248;10.336;2023-01-10T06:31:29;11.57;;;4.97;;
7027;SDS011;3555;53.248;10.336;2023-01-10T06:33:55;14.83;;;5.53;;
7027;SDS011;3555;53.248;10.336;2023-01-10T06:36:22;17.37;;;5.27;;
7027;SDS011;3555;53.248;10.336;2023-01-10T06:38:49;11.73;;;5.20;;
7027;SDS011;3555;53.248;10.336;2023-01-10T06:41:16;13.87;;;5.53;;
7027;SDS011;3555;53.248;10.336;2023-01-10T06:43:44;17.20;;;5.23;;
7027;SDS011;3555;53.248;10.336;2023-01-10T06:46:12;18.07;;;5.20;;
7027;SDS011;3555;53.248;10.336;2023-01-10T06:48:43;16.03;;;6.70;;
7027;SDS011;3555;53.248;10.336;2023-01-10T06:51:10;12.13;;;4.13;;
7027;SDS011;3555;53.248;10.336;2023-01-10T06:53:38;16.60;;;4.90;;
7027;SDS011;3555;53.248;10.336;2023-01-10T06:56:05;13.47;;;4.37;;
7027;SDS011;3555;53.248;10.336;2023-01-10T06:58:33;12.23;;;4.40;;
7027;SDS011;3555;53.248;10.336;2023-01-10T07:01:04;12.97;;;4.43;;
7027;SDS011;3555;53.248;10.336;2023-01-10T07:03:31;15.17;;;4.67;;
7027;SDS011;3555;53.248;10.336;2023-01-10T07:05:59;13.20;;;5.47;;
7027;SDS011;3555;53.248;10.336;2023-01-10T07:08:27;12.57;;;4.50;;
7027;SDS011;3555;53.248;10.336;2023-01-10T07:10:56;15.97;;;5.07;;
7027;SDS011;3555;53.248;10.336;2023-01-10T07:13:23;13.73;;;4.63;;
7027;SDS011;3555;53.248;10.336;2023-01-10T07:15:50;14.63;;;5.03;;
7027;SDS011;3555;53.248;10.336;2023-01-10T07:18:18;14.53;;;4.53;;
7027;SDS011;3555;53.248;10.336;2023-01-10T07:20:45;17.47;;;5.27;;
7027;SDS011;3555;53.248;10.336;2023-01-10T07:23:12;14.73;;;4.97;;
7027;SDS011;3555;53.248;10.336;2023-01-10T07:25:39;19.23;;;4.67;;
7027;SDS011;3555;53.248;10.336;2023-01-10T07:28:05;17.10;;;4.37;;
7027;SDS011;3555;53.248;10.336;2023-01-10T07:30:32;13.73;;;4.50;;
7027;SDS011;3555;53.248;10.336;2023-01-10T07:32:59;12.30;;;5.00;;
7027;SDS011;3555;53.248;10.336;2023-01-10T07:35:29;15.00;;;4.90;;
7027;SDS011;3555;53.248;10.336;2023-01-10T07:37:56;18.53;;;5.13;;
7027;SDS011;3555;53.248;10.336;2023-01-10T07:40:23;17.97;;;5.37;;
7027;SDS011;3555;53.248;10.336;2023-01-10T07:42:54;16.60;;;5.63;;
7027;SDS011;3555;53.248;10.336;2023-01-10T07:45:22;11.40;;;4.47;;
7027;SDS011;3555;53.248;10.336;2023-01-10T07:47:49;12.00;;;5.27;;
7027;SDS011;3555;53.248;10.336;2023-01-10T07:50:15;15.93;;;5.17;;
7027;SDS011;3555;53.248;10.336;2023-01-10T07:52:44;15.40;;;5.17;;
7027;SDS011;3555;53.248;10.336;2023-01-10T07:55:11;14.90;;;5.77;;
7027;SDS011;3555;53.248;10.336;2023-01-10T07:57:38;15.67;;;5.27;;
7027;SDS011;3555;53.248;10.336;2023-01-10T08:00:05;17.93;;;5.37;;
7027;SDS011;3555;53.248;10.336;2023-01-10T08:02:33;13.10;;;4.47;;
7027;SDS011;3555;53.248;10.336;2023-01-10T08:05:00;13.67;;;4.80;;
7027;SDS011;3555;53.248;10.336;2023-01-10T08:07:27;18.23;;;5.23;;
7027;SDS011;3555;53.248;10.336;2023-01-10T08:09:55;18.77;;;5.80;;
7027;SDS011;3555;53.248;10.336;2023-01-10T08:12:22;11.87;;;4.87;;
7027;SDS011;3555;53.248;10.336;2023-01-10T08:14:49;17.80;;;5.53;;
7027;SDS011;3555;53.248;10.336;2023-01-10T08:17:16;13.73;;;5.37;;
7027;SDS011;3555;53.248;10.336;2023-01-10T08:19:43;11.47;;;5.50;;
7027;SDS011;3555;53.248;10.336;2023-01-10T08:22:10;17.87;;;5.30;;
7027;SDS011;3555;53.248;10.336;2023-01-10T08:24:37;17.70;;;5.53;;
7027;SDS011;3555;53.248;10.336;2023-01-10T08:27:06;15.77;;;5.67;;
7027;SDS011;3555;53.248;10.336;2023-01-10T08:29:32;13.33;;;6.00;;
7027;SDS011;3555;53.248;10.336;2023-01-10T08:31:59;14.17;;;5.77;;
7027;SDS011;3555;53.248;10.336;2023-01-10T08:34:26;14.90;;;5.47;;
7027;SDS011;3555;53.248;10.336;2023-01-10T08:36:53;14.83;;;5.97;;
7027;SDS011;3555;53.248;10.336;2023-01-10T08:39:20;25.57;;;7.13;;
7027;SDS011;3555;53.248;10.336;2023-01-10T08:41:50;16.50;;;6.10;;
7027;SDS011;3555;53.248;10.336;2023-01-10T08:44:19;18.97;;;6.60;;
7027;SDS011;3555;53.248;10.336;2023-01-10T08:46:46;21.50;;;5.57;;
7027;SDS011;3555;53.248;10.336;2023-01-10T08:49:13;14.50;;;5.43;;
7027;SDS011;3555;53.248;10.336;2023-01-10T08:51:40;19.40;;;6.13;;
7027;SDS011;3555;53.248;10.336;2023-01-10T08:54:08;16.50;;;5.30;;
7027;SDS011;3555;53.248;10.336;2023-01-10T08:56:35;17.23;;;5.63;;
7027;SDS011;3555;53.248;10.336;2023-01-10T08:59:04;14.90;;;5.83;;
7027;SDS011;3555;53.248;10.336;2023-01-10T09:01:32;12.93;;;6.27;;
7027;SDS011;3555;53.248;10.336;2023-01-10T09:03:59;17.07;;;5.83;;
7027;SDS011;3555;53.248;10.336;2023-01-10T09:06:27;19.27;;;5.63;;
7027;SDS011;3555;53.248;10.336;2023-01-10T09:08:54;18.17;;;5.90;;
7027;SDS011;3555;53.248;10.336;2023-01-10T09:11:20;17.97;;;6.07;;
7027;SDS011;3555;53.248;10.336;2023-01-10T09:13:48;13.97;;;5.37;;
7027;SDS011;3555;53.248;10.336;2023-01-10T09:16:15;14.37;;;5.63;;
7027;SDS011;3555;53.248;10.336;2023-01-10T09:18:43;14.10;;;5.17;;
7027;SDS011;3555;53.248;10.336;2023-01-10T09:21:11;12.83;;;4.97;;
7027;SDS011;3555;53.248;10.336;2023-01-10T09:23:37;13.73;;;5.03;;
7027;SDS011;3555;53.248;10.336;2023-01-10T09:26:05;19.53;;;5.27;;
7027;SDS011;3555;53.248;10.336;2023-01-10T09:28:32;17.10;;;5.80;;
7027;SDS011;3555;53.248;10.336;2023-01-10T09:30:59;14.20;;;5.30;;
7027;SDS011;3555;53.248;10.336;2023-01-10T09:33:28;15.40;;;5.37;;
7027;SDS011;3555;53.248;10.336;2023-01-10T09:35:57;17.57;;;5.37;;
7027;SDS011;3555;53.248;10.336;2023-01-10T09:38:24;10.97;;;5.30;;
7027;SDS011;3555;53.248;10.336;2023-01-10T09:40:54;13.83;;;5.87;;
7027;SDS011;3555;53.248;10.336;2023-01-10T09:43:33;17.17;;;5.83;;
7027;SDS011;3555;53.248;10.336;2023-01-10T09:46:09;14.57;;;5.50;;
7027;SDS011;3555;53.248;10.336;2023-01-10T09:48:44;10.63;;;5.07;;
7027;SDS011;3555;53.248;10.336;2023-01-10T09:51:20;15.63;;;5.37;;
7027;SDS011;3555;53.248;10.336;2023-01-10T09:53:57;10.67;;;4.83;;
7027;SDS011;3555;53.248;10.336;2023-01-10T09:56:27;16.43;;;5.47;;
7027;SDS011;3555;53.248;10.336;2023-01-10T09:58:55;16.13;;;5.33;;
7027;SDS011;3555;53.248;10.336;2023-01-10T10:01:24;18.03;;;5.67;;
7027;SDS011;3555;53.248;10.336;2023-01-10T10:03:57;14.83;;;5.33;;
7027;SDS011;3555;53.248;10.336;2023-01-10T10:06:30;12.53;;;5.80;;
7027;SDS011;3555;53.248;10.336;2023-01-10T10:08:58;16.77;;;5.73;;
7027;SDS011;3555;53.248;10.336;2023-01-10T10:11:30;11.47;;;4.67;;
7027;SDS011;3555;53.248;10.336;2023-01-10T10:14:06;13.50;;;5.63;;
7027;SDS011;3555;53.248;10.336;2023-01-10T10:16:46;13.87;;;5.53;;
7027;SDS011;3555;53.248;10.336;2023-01-10T10:19:26;20.23;;;5.73;;
7027;SDS011;3555;53.248;10.336;2023-01-10T10:22:02;18.17;;;5.83;;
7027;SDS011;3555;53.248;10.336;2023-01-10T10:24:38;16.67;;;5.80;;
7027;SDS011;3555;53.248;10.336;2023-01-10T10:27:15;17.30;;;7.23;;
7027;SDS011;3555;53.248;10.336;2023-01-10T10:32:55;20.03;;;6.07;;
7027;SDS011;3555;53.248;10.336;2023-01-10T10:35:33;12.77;;;5.03;;
7027;SDS011;3555;53.248;10.336;2023-01-10T10:38:07;15.40;;;5.30;;
7027;SDS011;3555;53.248;10.336;2023-01-10T10:40:36;10.20;;;5.13;;
7027;SDS011;3555;53.248;10.336;2023-01-10T10:43:12;13.50;;;5.43;;
7027;SDS011;3555;53.248;10.336;2023-01-10T10:45:44;16.37;;;5.43;;
7027;SDS011;3555;53.248;10.336;2023-01-10T10:48:15;16.13;;;5.60;;
7027;SDS011;3555;53.248;10.336;2023-01-10T10:50:47;19.10;;;6.27;;
7027;SDS011;3555;53.248;10.336;2023-01-10T10:53:20;14.27;;;5.80;;
7027;SDS011;3555;53.248;10.336;2023-01-10T10:55:47;16.17;;;5.60;;
7027;SDS011;3555;53.248;10.336;2023-01-10T10:58:14;15.00;;;5.53;;
7027;SDS011;3555;53.248;10.336;2023-01-10T11:00:43;13.73;;;5.70;;
7027;SDS011;3555;53.248;10.336;2023-01-10T11:03:18;17.03;;;6.23;;
7027;SDS011;3555;53.248;10.336;2023-01-10T11:05:52;19.50;;;5.87;;
7027;SDS011;3555;53.248;10.336;2023-01-10T11:08:20;10.43;;;5.23;;
7027;SDS011;3555;53.248;10.336;2023-01-10T11:10:50;21.33;;;6.23;;
7027;SDS011;3555;53.248;10.336;2023-01-10T11:13:20;14.23;;;5.77;;
7027;SDS011;3555;53.248;10.336;2023-01-10T11:15:54;17.93;;;5.80;;
7027;SDS011;3555;53.248;10.336;2023-01-10T11:18:22;15.47;;;5.70;;
7027;SDS011;3555;53.248;10.336;2023-01-10T11:20:51;20.30;;;5.43;;
7027;SDS011;3555;53.248;10.336;2023-01-10T11:23:24;15.90;;;5.67;;
7027;SDS011;3555;53.248;10.336;2023-01-10T11:25:59;18.17;;;6.00;;
7027;SDS011;3555;53.248;10.336;2023-01-10T11:28:28;17.23;;;5.87;;
7027;SDS011;3555;53.248;10.336;2023-01-10T11:30:56;16.33;;;5.60;;
7027;SDS011;3555;53.248;10.336;2023-01-10T11:33:25;19.67;;;6.17;;
7027;SDS011;3555;53.248;10.336;2023-01-10T11:35:57;20.60;;;5.73;;
7027;SDS011;3555;53.248;10.336;2023-01-10T11:38:28;18.13;;;5.27;;
7027;SDS011;3555;53.248;10.336;2023-01-10T11:40:57;14.47;;;5.63;;
7027;SDS011;3555;53.248;10.336;2023-01-10T11:43:26;11.77;;;5.07;;
7027;SDS011;3555;53.248;10.336;2023-01-10T11:45:56;12.30;;;5.53;;
7027;SDS011;3555;53.248;10.336;2023-01-10T11:48:27;16.93;;;5.50;;
7027;SDS011;3555;53.248;10.336;2023-01-10T11:51:04;19.43;;;6.93;;
7027;SDS011;3555;53.248;10.336;2023-01-10T11:53:42;17.50;;;5.87;;
7027;SDS011;3555;53.248;10.336;2023-01-10T11:56:10;15.13;;;6.50;;
7027;SDS011;3555;53.248;10.336;2023-01-10T11:58:47;19.20;;;6.03;;
7027;SDS011;3555;53.248;10.336;2023-01-10T12:01:28;17.87;;;6.60;;
7027;SDS011;3555;53.248;10.336;2023-01-10T12:03:56;18.37;;;5.70;;
7027;SDS011;3555;53.248;10.336;2023-01-10T12:06:23;13.17;;;5.80;;
7027;SDS011;3555;53.248;10.336;2023-01-10T12:08:53;17.97;;;5.83;;
7027;SDS011;3555;53.248;10.336;2023-01-10T12:11:22;20.30;;;6.30;;
7027;SDS011;3555;53.248;10.336;2023-01-10T12:13:53;12.87;;;5.87;;
7027;SDS011;3555;53.248;10.336;2023-01-10T12:16:22;14.93;;;5.57;;
7027;SDS011;3555;53.248;10.336;2023-01-10T12:18:50;16.03;;;5.50;;
7027;SDS011;3555;53.248;10.336;2023-01-10T12:21:20;15.10;;;5.80;;
7027;SDS011;3555;53.248;10.336;2023-01-10T12:23:50;13.00;;;5.70;;
7027;SDS011;3555;53.248;10.336;2023-01-10T12:26:22;16.20;;;6.23;;
7027;SDS011;3555;53.248;10.336;2023-01-10T12:28:52;18.30;;;5.90;;
7027;SDS011;3555;53.248;10.336;2023-01-10T12:31:21;14.03;;;6.00;;
7027;SDS011;3555;53.248;10.336;2023-01-10T12:33:50;13.10;;;5.73;;
7027;SDS011;3555;53.248;10.336;2023-01-10T12:36:30;21.57;;;6.20;;
7027;SDS011;3555;53.248;10.336;2023-01-10T12:39:04;15.70;;;6.20;;
7027;SDS011;3555;53.248;10.336;2023-01-10T12:41:45;17.67;;;5.77;;
7027;SDS011;3555;53.248;10.336;2023-01-10T12:44:38;12.40;;;5.87;;
7027;SDS011;3555;53.248;10.336;2023-01-10T12:47:09;19.07;;;5.97;;
7027;SDS011;3555;53.248;10.336;2023-01-10T12:49:45;17.37;;;6.07;;
7027;SDS011;3555;53.248;10.336;2023-01-10T12:52:16;14.73;;;7.10;;
7027;SDS011;3555;53.248;10.336;2023-01-10T12:54:54;13.27;;;5.30;;
7027;SDS011;3555;53.248;10.336;2023-01-10T12:57:23;13.37;;;6.03;;
7027;SDS011;3555;53.248;10.336;2023-01-10T12:59:55;17.70;;;5.60;;
7027;SDS011;3555;53.248;10.336;2023-01-10T13:02:24;15.13;;;5.13;;
7027;SDS011;3555;53.248;10.336;2023-01-10T13:04:54;18.77;;;5.63;;
7027;SDS011;3555;53.248;10.336;2023-01-10T13:07:25;15.43;;;5.33;;
7027;SDS011;3555;53.248;10.336;2023-01-10T13:09:58;12.63;;;4.57;;
7027;SDS011;3555;53.248;10.336;2023-01-10T13:12:27;16.53;;;5.10;;
7027;SDS011;3555;53.248;10.336;2023-01-10T13:15:00;17.83;;;6.73;;
7027;SDS011;3555;53.248;10.336;2023-01-10T13:17:35;15.47;;;5.70;;
7027;SDS011;3555;53.248;10.336;2023-01-10T13:20:26;14.03;;;5.23;;
7027;SDS011;3555;53.248;10.336;2023-01-10T13:23:14;11.47;;;5.43;;
7027;SDS011;3555;53.248;10.336;2023-01-10T13:26:02;15.67;;;5.47;;
7027;SDS011;3555;53.248;10.336;2023-01-10T13:28:33;15.60;;;4.83;;
7027;SDS011;3555;53.248;10.336;2023-01-10T13:31:02;13.20;;;5.33;;
7027;SDS011;3555;53.248;10.336;2023-01-10T13:33:32;15.67;;;5.23;;
7027;SDS011;3555;53.248;10.336;2023-01-10T13:36:08;12.27;;;5.27;;
7027;SDS011;3555;53.248;10.336;2023-01-10T13:38:38;13.17;;;5.97;;
7027;SDS011;3555;53.248;10.336;2023-01-10T13:41:15;19.80;;;6.03;;
7027;SDS011;3555;53.248;10.336;2023-01-10T13:44:05;15.43;;;5.73;;
7027;SDS011;3555;53.248;10.336;2023-01-10T13:46:38;19.67;;;6.13;;
7027;SDS011;3555;53.248;10.336;2023-01-10T13:55:22;16.30;;;5.53;;
7027;SDS011;3555;53.248;10.336;2023-01-10T13:57:58;15.37;;;5.90;;
7027;SDS011;3555;53.248;10.336;2023-01-10T14:03:38;18.20;;;5.80;;
7027;SDS011;3555;53.248;10.336;2023-01-10T14:06:15;13.90;;;5.40;;
7027;SDS011;3555;53.248;10.336;2023-01-10T14:09:26;14.90;;;5.07;;
7027;SDS011;3555;53.248;10.336;2023-01-10T14:11:57;14.63;;;5.23;;
7027;SDS011;3555;53.248;10.336;2023-01-10T14:14:29;17.27;;;5.63;;
7027;SDS011;3555;53.248;10.336;2023-01-10T14:17:08;19.60;;;4.93;;
7027;SDS011;3555;53.248;10.336;2023-01-10T14:19:38;16.70;;;5.60;;
7027;SDS011;3555;53.248;10.336;2023-01-10T14:22:17;13.67;;;5.17;;
7027;SDS011;3555;53.248;10.336;2023-01-10T14:24:50;17.20;;;5.27;;
7027;SDS011;3555;53.248;10.336;2023-01-10T14:27:18;16.13;;;4.53;;
7027;SDS011;3555;53.248;10.336;2023-01-10T14:29:48;21.83;;;6.13;;
7027;SDS011;3555;53.248;10.336;2023-01-10T14:32:24;22.57;;;5.70;;
7027;SDS011;3555;53.248;10.336;2023-01-10T14:34:58;14.30;;;4.90;;
7027;SDS011;3555;53.248;10.336;2023-01-10T14:37:30;16.80;;;5.33;;
7027;SDS011;3555;53.248;10.336;2023-01-10T14:40:03;12.10;;;5.07;;
7027;SDS011;3555;53.248;10.336;2023-01-10T14:42:31;13.30;;;4.90;;
7027;SDS011;3555;53.248;10.336;2023-01-10T14:45:02;15.73;;;4.53;;
7027;SDS011;3555;53.248;10.336;2023-01-10T14:47:38;15.13;;;4.90;;
7027;SDS011;3555;53.248;10.336;2023-01-10T14:50:05;14.77;;;5.63;;
7027;SDS011;3555;53.248;10.336;2023-01-10T14:52:47;19.43;;;5.27;;
7027;SDS011;3555;53.248;10.336;2023-01-10T14:55:16;14.23;;;5.30;;
7027;SDS011;3555;53.248;10.336;2023-01-10T14:57:51;17.13;;;5.97;;
7027;SDS011;3555;53.248;10.336;2023-01-10T15:00:23;17.70;;;5.20;;
7027;SDS011;3555;53.248;10.336;2023-01-10T15:02:52;17.27;;;6.10;;
7027;SDS011;3555;53.248;10.336;2023-01-10T15:05:20;12.67;;;5.60;;
7027;SDS011;3555;53.248;10.336;2023-01-10T15:07:49;13.47;;;4.80;;
7027;SDS011;3555;53.248;10.336;2023-01-10T15:10:19;20.20;;;6.87;;
7027;SDS011;3555;53.248;10.336;2023-01-10T15:12:50;17.73;;;6.47;;
7027;SDS011;3555;53.248;10.336;2023-01-10T15:15:19;19.57;;;5.43;;
7027;SDS011;3555;53.248;10.336;2023-01-10T15:17:52;18.30;;;6.07;;
7027;SDS011;3555;53.248;10.336;2023-01-10T15:20:19;15.87;;;5.90;;
7027;SDS011;3555;53.248;10.336;2023-01-10T15:22:47;15.03;;;6.30;;
7027;SDS011;3555;53.248;10.336;2023-01-10T15:25:27;16.73;;;5.73;;
7027;SDS011;3555;53.248;10.336;2023-01-10T15:27:57;18.33;;;5.93;;
7027;SDS011;3555;53.248;10.336;2023-01-10T15:30:28;17.17;;;6.10;;